createdAt,value
2022-11-09T00:01:04.357Z,5.70
2022-11-09T00:03:31.107Z,5.61
2022-11-09T00:05:59.698Z,5.67
2022-11-09T00:08:26.895Z,5.60
2022-11-09T00:10:53.760Z,5.65
2022-11-09T00:13:21.029Z,5.53
2022-11-09T00:15:48.066Z,5.56
2022-11-09T00:18:14.853Z,5.64
2022-11-09T00:20:47.722Z,5.74
2022-11-09T00:23:16.878Z,5.75
2022-11-09T00:25:44.424Z,5.74
2022-11-09T00:28:11.287Z,5.70
2022-11-09T00:30:38.023Z,5.46
2022-11-09T00:33:04.827Z,5.65
2022-11-09T00:35:31.693Z,5.72
2022-11-09T00:37:58.533Z,5.53
2022-11-09T00:40:25.346Z,5.68
2022-11-09T00:42:52.157Z,5.58
2022-11-09T00:45:18.938Z,5.62
2022-11-09T00:47:45.692Z,5.56
2022-11-09T00:50:12.494Z,5.68
2022-11-09T00:52:39.249Z,5.60
2022-11-09T00:55:06.358Z,5.57
2022-11-09T00:57:33.088Z,5.58
2022-11-09T00:59:59.831Z,5.64
2022-11-09T01:02:26.552Z,5.67
2022-11-09T01:04:53.284Z,5.49
2022-11-09T01:07:20.045Z,5.59
2022-11-09T01:09:47.896Z,5.56
2022-11-09T01:12:14.665Z,5.60
2022-11-09T01:14:41.386Z,5.39
2022-11-09T01:17:08.233Z,5.54
2022-11-09T01:19:34.974Z,5.37
2022-11-09T01:22:01.704Z,5.58
2022-11-09T01:24:28.466Z,5.49
2022-11-09T01:26:55.187Z,5.22
2022-11-09T01:29:21.949Z,5.47
2022-11-09T01:31:49.138Z,5.40
2022-11-09T01:34:17.579Z,5.44
2022-11-09T01:36:44.425Z,5.33
2022-11-09T01:39:11.201Z,5.47
2022-11-09T01:41:37.974Z,5.48
2022-11-09T01:44:20.158Z,5.47
2022-11-09T01:46:57.608Z,5.32
2022-11-09T01:49:50.106Z,5.48
2022-11-09T01:52:34.244Z,5.46
2022-11-09T01:55:16.167Z,5.49
2022-11-09T01:57:54.826Z,5.51
2022-11-09T02:00:21.841Z,5.26
2022-11-09T02:02:56.440Z,5.45
2022-11-09T02:05:30.194Z,5.51
2022-11-09T02:08:01.846Z,5.45
2022-11-09T02:10:41.103Z,5.51
2022-11-09T02:13:09.342Z,5.50
2022-11-09T02:15:39.161Z,5.46
2022-11-09T02:18:09.794Z,5.44
2022-11-09T02:20:50.401Z,5.34
2022-11-09T02:23:19.679Z,5.50
2022-11-09T02:26:00.245Z,5.56
2022-11-09T02:28:27.826Z,5.56
2022-11-09T02:30:56.633Z,5.48
2022-11-09T02:33:23.814Z,5.57
2022-11-09T02:35:50.759Z,5.56
2022-11-09T02:38:17.605Z,5.49
2022-11-09T02:40:48.759Z,5.47
2022-11-09T02:43:17.155Z,5.47
2022-11-09T02:45:44.152Z,5.50
2022-11-09T02:48:10.921Z,5.51
2022-11-09T02:50:37.690Z,5.41
2022-11-09T02:53:04.530Z,5.49
2022-11-09T02:55:31.349Z,5.51
2022-11-09T02:57:58.088Z,5.58
2022-11-09T03:00:24.848Z,5.45
2022-11-09T03:02:51.769Z,5.58
2022-11-09T03:05:18.688Z,5.62
2022-11-09T03:07:45.414Z,5.56
2022-11-09T03:10:12.350Z,5.56
2022-11-09T03:12:39.123Z,5.48
2022-11-09T03:15:08.684Z,5.63
2022-11-09T03:17:35.790Z,5.54
2022-11-09T03:20:02.702Z,5.52
2022-11-09T03:22:29.700Z,5.50
2022-11-09T03:24:56.514Z,5.62
2022-11-09T03:27:23.275Z,5.49
2022-11-09T03:29:50.157Z,5.62
2022-11-09T03:32:16.977Z,5.69
2022-11-09T03:34:43.785Z,5.68
2022-11-09T03:37:10.594Z,5.60
2022-11-09T03:39:37.350Z,5.78
2022-11-09T03:42:04.361Z,5.72
2022-11-09T03:44:31.089Z,5.67
2022-11-09T03:46:57.844Z,5.81
2022-11-09T03:49:24.563Z,5.76
2022-11-09T03:51:51.790Z,5.82
2022-11-09T03:54:18.587Z,5.78
2022-11-09T03:56:45.357Z,5.75
2022-11-09T03:59:12.100Z,5.82
2022-11-09T04:01:38.999Z,5.97
2022-11-09T04:04:05.765Z,5.97
2022-11-09T04:06:32.678Z,5.98
2022-11-09T04:08:59.464Z,5.94
2022-11-09T04:11:26.253Z,6.01
2022-11-09T04:13:52.975Z,5.98
2022-11-09T04:16:19.744Z,6.06
2022-11-09T04:18:46.536Z,6.13
2022-11-09T04:21:13.305Z,6.18
2022-11-09T04:23:40.082Z,6.16
2022-11-09T04:26:06.822Z,6.21
2022-11-09T04:28:33.700Z,6.20
2022-11-09T04:31:02.136Z,6.28
2022-11-09T04:33:29.509Z,6.28
2022-11-09T04:36:02.665Z,6.33
2022-11-09T04:38:29.371Z,6.31
2022-11-09T04:41:01.389Z,6.37
2022-11-09T04:43:28.643Z,6.31
2022-11-09T04:45:55.892Z,6.33
2022-11-09T04:48:22.800Z,6.50
2022-11-09T04:50:49.551Z,6.26
2022-11-09T04:53:16.534Z,6.40
2022-11-09T04:55:43.337Z,6.50
2022-11-09T04:58:10.720Z,6.47
2022-11-09T05:00:38.036Z,6.61
2022-11-09T05:03:06.692Z,6.62
2022-11-09T05:05:35.476Z,6.52
2022-11-09T05:08:03.378Z,6.63
2022-11-09T05:10:30.574Z,6.60
2022-11-09T05:13:02.953Z,6.66
2022-11-09T05:15:30.342Z,6.63
2022-11-09T05:17:57.624Z,6.63
2022-11-09T05:20:25.438Z,6.64
2022-11-09T05:23:10.587Z,6.56
2022-11-09T05:25:37.331Z,6.65
2022-11-09T05:28:04.440Z,6.67
2022-11-09T05:30:31.778Z,6.73
2022-11-09T05:32:58.521Z,6.68
2022-11-09T05:35:25.337Z,6.70
2022-11-09T05:37:52.172Z,6.70
2022-11-09T05:40:20.476Z,6.77
2022-11-09T05:42:47.961Z,6.67
2022-11-09T05:48:05.167Z,6.80
2022-11-09T05:50:32.652Z,6.75
2022-11-09T05:53:00.691Z,6.84
2022-11-09T05:55:28.125Z,6.84
2022-11-09T05:57:55.445Z,6.64
2022-11-09T06:00:22.709Z,6.82
2022-11-09T06:02:50.043Z,6.84
2022-11-09T06:05:17.172Z,6.76
2022-11-09T06:07:43.980Z,6.93
2022-11-09T06:10:10.774Z,6.79
2022-11-09T06:12:37.671Z,7.00
2022-11-09T06:15:05.712Z,6.88
2022-11-09T06:17:32.461Z,6.94
2022-11-09T06:19:59.204Z,6.83
2022-11-09T06:22:25.973Z,6.83
2022-11-09T06:24:52.725Z,6.76
2022-11-09T06:27:19.474Z,6.90
2022-11-09T06:29:46.365Z,6.98
2022-11-09T06:32:13.081Z,6.95
2022-11-09T06:34:39.820Z,6.80
2022-11-09T06:37:06.541Z,6.90
2022-11-09T06:39:33.262Z,7.00
2022-11-09T06:42:00.006Z,6.86
2022-11-09T06:44:26.722Z,7.01
2022-11-09T06:46:53.452Z,7.03
2022-11-09T06:49:20.296Z,7.03
2022-11-09T06:51:47.085Z,6.95
2022-11-09T06:54:13.894Z,7.09
2022-11-09T06:56:40.638Z,7.19
2022-11-09T06:59:07.944Z,6.98
2022-11-09T07:01:34.777Z,7.00
2022-11-09T07:04:01.585Z,7.22
2022-11-09T07:06:28.408Z,7.20
2022-11-09T07:08:56.673Z,7.34
2022-11-09T07:11:23.475Z,7.33
2022-11-09T07:13:54.785Z,7.47
2022-11-09T07:16:23.084Z,7.54
2022-11-09T07:18:49.861Z,7.59
2022-11-09T07:21:17.095Z,7.57
2022-11-09T07:23:43.890Z,7.84
2022-11-09T07:26:10.673Z,7.77
2022-11-09T07:28:37.456Z,7.89
2022-11-09T07:31:04.887Z,7.62
2022-11-09T07:33:33.471Z,8.03
2022-11-09T07:36:01.433Z,7.93
2022-11-09T07:38:31.850Z,8.07
2022-11-09T07:41:03.051Z,8.21
2022-11-09T07:43:30.076Z,8.35
2022-11-09T07:45:57.259Z,8.77
2022-11-09T07:48:24.458Z,8.76
2022-11-09T07:50:51.308Z,8.84
2022-11-09T07:53:18.364Z,9.00
2022-11-09T07:55:45.237Z,9.22
2022-11-09T07:58:15.207Z,9.40
2022-11-09T08:00:43.941Z,9.66
2022-11-09T08:03:11.264Z,9.67
2022-11-09T08:05:39.235Z,9.89
2022-11-09T08:08:10.448Z,10.11
2022-11-09T08:10:38.411Z,10.30
2022-11-09T08:13:09.980Z,10.39
2022-11-09T08:15:38.395Z,10.34
2022-11-09T08:18:08.869Z,10.50
2022-11-09T08:20:35.655Z,10.57
2022-11-09T08:23:04.772Z,10.69
2022-11-09T08:25:34.320Z,10.54
2022-11-09T08:28:01.338Z,10.68
2022-11-09T08:30:28.088Z,10.73
2022-11-09T08:32:55.219Z,10.71
2022-11-09T08:35:24.641Z,10.86
2022-11-09T08:37:52.936Z,11.14
2022-11-09T08:40:24.188Z,11.01
2022-11-09T08:42:52.101Z,11.20
2022-11-09T08:45:19.936Z,11.07
2022-11-09T08:47:47.471Z,11.26
2022-11-09T08:50:15.707Z,11.28
2022-11-09T08:52:43.285Z,11.31
2022-11-09T08:55:10.471Z,11.35
2022-11-09T08:57:37.878Z,11.38
2022-11-09T09:00:06.132Z,11.46
2022-11-09T09:02:33.093Z,11.45
2022-11-09T09:04:59.927Z,11.45
2022-11-09T09:07:26.893Z,11.60
2022-11-09T09:09:53.664Z,11.50
2022-11-09T09:12:20.530Z,11.56
2022-11-09T09:14:47.373Z,11.66
2022-11-09T09:17:14.440Z,11.80
2022-11-09T09:19:43.822Z,11.79
2022-11-09T09:22:14.087Z,11.84
2022-11-09T09:24:40.819Z,11.95
2022-11-09T09:27:07.546Z,11.92
2022-11-09T09:29:34.762Z,12.05
2022-11-09T09:32:01.506Z,12.09
2022-11-09T09:34:28.224Z,12.04
2022-11-09T09:36:55.669Z,12.17
2022-11-09T09:39:22.528Z,12.24
2022-11-09T09:41:59.540Z,12.30
2022-11-09T09:44:43.171Z,12.32
2022-11-09T09:47:18.968Z,12.27
2022-11-09T09:50:15.246Z,12.49
2022-11-09T09:53:24.223Z,12.60
2022-11-09T09:55:56.998Z,12.65
2022-11-09T09:58:28.197Z,12.62
2022-11-09T10:01:07.591Z,12.73
2022-11-09T10:03:34.352Z,12.83
2022-11-09T10:06:19.885Z,12.83
2022-11-09T10:08:58.528Z,12.84
2022-11-09T10:12:05.444Z,12.84
2022-11-09T10:14:56.308Z,12.96
2022-11-09T10:17:58.352Z,13.02
2022-11-09T10:20:52.674Z,13.08
2022-11-09T10:23:29.136Z,13.14
2022-11-09T10:26:15.777Z,13.20
2022-11-09T10:31:34.027Z,13.20
2022-11-09T10:34:16.698Z,13.23
2022-11-09T10:36:59.721Z,13.35
2022-11-09T10:39:41.429Z,13.37
2022-11-09T10:42:11.557Z,13.42
2022-11-09T10:44:38.657Z,13.41
2022-11-09T10:47:17.863Z,13.52
2022-11-09T10:49:44.674Z,13.36
2022-11-09T10:52:44.262Z,13.45
2022-11-09T10:55:28.620Z,13.50
2022-11-09T10:57:58.640Z,13.52
2022-11-09T11:00:25.763Z,13.55
2022-11-09T11:02:54.373Z,13.58
2022-11-09T11:05:28.520Z,13.58
2022-11-09T11:07:55.794Z,13.72
2022-11-09T11:10:23.577Z,13.80
2022-11-09T11:13:13.465Z,13.85
2022-11-09T11:15:42.598Z,13.91
2022-11-09T11:18:25.172Z,13.99
2022-11-09T11:21:18.976Z,14.03
2022-11-09T11:24:13.431Z,14.06
2022-11-09T11:26:57.595Z,14.15
2022-11-09T11:29:46.752Z,14.25
2022-11-09T11:32:19.475Z,14.25
2022-11-09T11:35:03.971Z,14.28
2022-11-09T11:38:26.936Z,14.41
2022-11-09T11:41:24.329Z,14.41
2022-11-09T11:44:29.543Z,14.45
2022-11-09T11:47:10.039Z,14.43
2022-11-09T11:49:50.161Z,14.59
2022-11-09T11:52:33.061Z,14.66
2022-11-09T11:55:20.631Z,14.70
2022-11-09T11:58:23.877Z,14.74
2022-11-09T12:01:13.407Z,14.89
2022-11-09T12:04:32.388Z,15.01
2022-11-09T12:07:29.464Z,15.06
2022-11-09T12:10:02.161Z,15.19
2022-11-09T12:13:08.456Z,15.23
2022-11-09T12:15:48.157Z,15.18
2022-11-09T12:18:20.578Z,15.19
2022-11-09T12:21:20.868Z,15.24
2022-11-09T12:24:15.545Z,15.23
2022-11-09T12:27:30.594Z,15.25
2022-11-09T12:29:59.703Z,15.33
2022-11-09T12:32:56.396Z,15.32
2022-11-09T12:35:30.566Z,15.25
2022-11-09T12:38:13.072Z,15.35
2022-11-09T12:40:58.651Z,15.28
2022-11-09T12:43:50.109Z,15.26
2022-11-09T12:46:21.327Z,15.18
2022-11-09T12:48:48.996Z,15.16
2022-11-09T12:51:16.769Z,15.04
2022-11-09T12:53:43.531Z,14.84
2022-11-09T12:56:23.997Z,14.83
2022-11-09T12:58:50.804Z,14.80
2022-11-09T13:01:26.361Z,14.78
2022-11-09T13:03:59.163Z,14.67
2022-11-09T13:06:33.292Z,14.63
2022-11-09T13:09:15.521Z,14.57
2022-11-09T13:11:48.377Z,14.63
2022-11-09T13:14:29.211Z,14.64
2022-11-09T13:17:00.707Z,14.57
2022-11-09T13:19:37.623Z,14.65
2022-11-09T13:22:16.393Z,14.52
2022-11-09T13:25:00.205Z,14.44
2022-11-09T13:27:33.072Z,14.46
2022-11-09T13:30:01.578Z,14.20
2022-11-09T13:32:30.457Z,14.28
2022-11-09T13:35:04.910Z,14.25
2022-11-09T13:37:48.124Z,14.29
2022-11-09T13:42:42.894Z,14.11
2022-11-09T13:45:36.353Z,14.06
2022-11-09T13:48:03.768Z,14.12
2022-11-09T13:50:33.468Z,14.13
2022-11-09T13:53:03.095Z,14.16
2022-11-09T13:55:39.486Z,14.11
2022-11-09T13:58:23.161Z,14.09
2022-11-09T14:00:49.944Z,14.07
2022-11-09T14:03:26.174Z,13.77
2022-11-09T14:05:58.311Z,13.84
2022-11-09T14:08:40.300Z,13.90
2022-11-09T14:11:37.902Z,13.97
2022-11-09T14:14:34.075Z,13.87
2022-11-09T14:17:37.730Z,13.75
2022-11-09T14:20:21.773Z,13.78
2022-11-09T14:22:48.688Z,13.75
2022-11-09T14:25:19.195Z,13.68
2022-11-09T14:27:57.516Z,13.66
2022-11-09T14:30:30.729Z,13.55
2022-11-09T14:32:58.832Z,13.50
2022-11-09T14:35:36.946Z,13.59
2022-11-09T14:38:23.858Z,13.57
2022-11-09T14:40:53.533Z,13.48
2022-11-09T14:43:31.662Z,13.47
2022-11-09T14:46:02.129Z,13.42
2022-11-09T14:48:31.769Z,13.43
2022-11-09T14:51:04.123Z,13.35
2022-11-09T14:53:42.681Z,13.36
2022-11-09T14:56:15.177Z,13.33
2022-11-09T14:58:44.096Z,13.24
2022-11-09T15:01:20.224Z,13.20
2022-11-09T15:04:16.054Z,13.13
2022-11-09T15:07:04.064Z,13.01
2022-11-09T15:09:45.087Z,12.97
2022-11-09T15:12:17.117Z,13.06
2022-11-09T15:14:54.418Z,12.98
2022-11-09T15:17:36.902Z,12.92
2022-11-09T15:20:09.636Z,12.90
2022-11-09T15:23:11.412Z,12.85
2022-11-09T15:25:41.781Z,12.89
2022-11-09T15:28:12.751Z,12.87
2022-11-09T15:31:09.268Z,12.83
2022-11-09T15:36:46.091Z,12.32
2022-11-09T15:39:26.844Z,12.30
2022-11-09T15:42:13.030Z,12.36
2022-11-09T15:45:01.679Z,12.71
2022-11-09T15:48:18.730Z,12.65
2022-11-09T15:55:08.970Z,12.22
2022-11-09T16:07:24.134Z,12.18
2022-11-09T16:10:20.902Z,12.24
2022-11-09T16:13:07.859Z,12.04
2022-11-09T16:15:36.896Z,12.25
2022-11-09T16:18:05.056Z,12.25
2022-11-09T16:20:31.970Z,12.20
2022-11-09T16:22:59.149Z,12.24
2022-11-09T16:25:27.212Z,12.17
2022-11-09T16:27:54.194Z,12.02
2022-11-09T16:30:21.734Z,12.11
2022-11-09T16:32:48.510Z,12.16
2022-11-09T16:35:30.701Z,12.00
2022-11-09T16:37:58.147Z,12.05
2022-11-09T16:40:27.061Z,12.07
2022-11-09T16:42:53.820Z,12.06
2022-11-09T16:45:21.649Z,12.04
2022-11-09T16:47:52.469Z,12.01
2022-11-09T16:50:19.229Z,12.03
2022-11-09T16:52:45.988Z,12.01
2022-11-09T16:55:13.820Z,12.00
2022-11-09T16:57:40.935Z,11.77
2022-11-09T17:00:09.613Z,11.87
2022-11-09T17:02:36.393Z,11.89
2022-11-09T17:05:04.065Z,11.87
2022-11-09T17:07:31.954Z,11.83
2022-11-09T17:09:58.775Z,11.86
2022-11-09T17:12:25.545Z,11.92
2022-11-09T17:14:52.363Z,11.86
2022-11-09T17:17:22.582Z,11.86
2022-11-09T17:19:49.938Z,11.81
2022-11-09T17:22:17.498Z,11.74
2022-11-09T17:24:44.541Z,11.85
2022-11-09T17:27:12.191Z,11.71
2022-11-09T17:29:39.881Z,11.78
2022-11-09T17:32:09.170Z,11.74
2022-11-09T17:34:36.287Z,11.74
2022-11-09T17:37:05.443Z,11.73
2022-11-09T17:39:33.454Z,11.73
2022-11-09T17:42:00.259Z,11.68
2022-11-09T17:44:27.175Z,11.68
2022-11-09T17:46:54.007Z,11.61
2022-11-09T17:49:20.848Z,11.69
2022-11-09T17:51:47.637Z,11.67
2022-11-09T17:54:15.172Z,11.59
2022-11-09T17:56:42.185Z,11.60
2022-11-09T17:59:09.349Z,11.59
2022-11-09T18:01:41.523Z,11.57
2022-11-09T18:04:11.336Z,11.56
2022-11-09T18:06:39.033Z,11.50
2022-11-09T18:11:53.180Z,11.52
2022-11-09T18:14:20.240Z,11.48
2022-11-09T18:16:47.132Z,11.49
2022-11-09T18:19:14.097Z,11.45
2022-11-09T18:21:41.499Z,11.34
2022-11-09T18:24:08.885Z,11.36
2022-11-09T18:26:35.770Z,11.44
2022-11-09T18:29:02.512Z,11.31
2022-11-09T18:31:32.180Z,11.43
2022-11-09T18:33:59.014Z,11.32
2022-11-09T18:36:26.306Z,11.31
2022-11-09T18:38:55.884Z,11.35
2022-11-09T18:41:25.245Z,11.27
2022-11-09T18:43:54.012Z,11.20
2022-11-09T18:46:22.311Z,11.21
2022-11-09T18:48:53.487Z,11.21
2022-11-09T18:51:20.268Z,11.21
2022-11-09T18:53:48.493Z,11.23
2022-11-09T18:56:23.491Z,11.19
2022-11-09T18:58:53.110Z,11.28
2022-11-09T19:01:23.102Z,11.28
2022-11-09T19:03:54.994Z,11.27
2022-11-09T19:06:24.966Z,11.18
2022-11-09T19:09:10.237Z,11.21
2022-11-09T19:11:37.531Z,11.23
2022-11-09T19:14:04.318Z,11.12
2022-11-09T19:16:31.527Z,11.21
2022-11-09T19:18:59.358Z,11.24
2022-11-09T19:21:35.984Z,11.24
2022-11-09T19:24:03.554Z,11.24
2022-11-09T19:26:30.602Z,11.13
2022-11-09T19:28:57.374Z,11.10
2022-11-09T19:31:25.048Z,11.16
2022-11-09T19:33:52.674Z,11.13
2022-11-09T19:36:30.200Z,11.13
2022-11-09T19:38:58.893Z,11.08
2022-11-09T19:41:26.316Z,11.10
2022-11-09T19:43:58.501Z,11.20
2022-11-09T19:46:27.709Z,11.22
2022-11-09T19:48:54.579Z,11.20
2022-11-09T19:51:21.480Z,11.19
2022-11-09T19:53:53.470Z,11.13
2022-11-09T19:56:22.214Z,11.19
2022-11-09T19:58:51.326Z,11.18
2022-11-09T20:01:18.964Z,11.11
2022-11-09T20:03:52.803Z,11.17
2022-11-09T20:06:24.711Z,11.15
2022-11-09T20:08:52.347Z,11.10
2022-11-09T20:11:40.844Z,11.07
2022-11-09T20:14:09.083Z,11.05
2022-11-09T20:16:37.355Z,11.10
2022-11-09T20:19:06.759Z,11.06
2022-11-09T20:21:33.607Z,11.05
2022-11-09T20:24:00.498Z,10.99
2022-11-09T20:26:28.570Z,11.06
2022-11-09T20:28:56.077Z,11.03
2022-11-09T20:31:23.658Z,11.02
2022-11-09T20:33:50.941Z,11.01
2022-11-09T20:36:19.007Z,10.88
2022-11-09T20:38:47.203Z,10.95
2022-11-09T20:41:14.296Z,10.91
2022-11-09T20:43:41.445Z,10.90
2022-11-09T20:46:16.020Z,10.95
2022-11-09T20:48:59.242Z,10.96
2022-11-09T20:51:26.455Z,10.93
2022-11-09T20:53:53.295Z,10.87
2022-11-09T20:56:21.046Z,10.92
2022-11-09T20:58:48.270Z,10.90
2022-11-09T21:01:21.598Z,10.90
2022-11-09T21:03:50.985Z,10.87
2022-11-09T21:06:18.581Z,10.87
2022-11-09T21:08:51.155Z,10.93
2022-11-09T21:11:19.133Z,10.91
2022-11-09T21:13:53.388Z,10.97
2022-11-09T21:16:22.471Z,10.97
2022-11-09T21:18:49.335Z,10.95
2022-11-09T21:21:19.788Z,10.87
2022-11-09T21:24:05.691Z,10.94
2022-11-09T21:26:51.623Z,10.94
2022-11-09T21:29:40.193Z,10.94
2022-11-09T21:32:07.899Z,10.92
2022-11-09T21:34:37.046Z,10.86
2022-11-09T21:37:04.862Z,10.86
2022-11-09T21:39:32.057Z,10.87
2022-11-09T21:41:58.976Z,10.81
2022-11-09T21:44:29.436Z,10.88
2022-11-09T21:46:56.204Z,10.82
2022-11-09T21:49:23.143Z,10.85
2022-11-09T21:51:49.931Z,10.76
2022-11-09T21:54:17.161Z,10.79
2022-11-09T21:56:44.215Z,10.74
2022-11-09T21:59:10.970Z,10.82
2022-11-09T22:01:37.765Z,10.76
2022-11-09T22:04:04.945Z,10.77
2022-11-09T22:06:31.730Z,10.76
2022-11-09T22:08:58.523Z,10.74
2022-11-09T22:11:45.742Z,10.79
2022-11-09T22:14:37.579Z,10.75
2022-11-09T22:17:08.702Z,10.71
2022-11-09T22:19:57.120Z,10.78
2022-11-09T22:22:25.844Z,10.72
2022-11-09T22:24:52.660Z,10.72
2022-11-09T22:27:19.400Z,10.69
2022-11-09T22:29:46.120Z,10.67
2022-11-09T22:32:12.816Z,10.69
2022-11-09T22:34:39.571Z,10.61
2022-11-09T22:37:06.293Z,10.68
2022-11-09T22:39:33.051Z,10.65
2022-11-09T22:42:00.800Z,10.69
2022-11-09T22:44:27.598Z,10.70
2022-11-09T22:46:54.369Z,10.64
2022-11-09T22:49:21.131Z,10.64
2022-11-09T22:51:48.155Z,10.64
2022-11-09T22:54:14.966Z,10.59
2022-11-09T22:56:41.690Z,10.66
2022-11-09T22:59:08.504Z,10.64
2022-11-09T23:01:35.287Z,10.58
2022-11-09T23:04:02.030Z,10.60
2022-11-09T23:06:29.338Z,10.56
2022-11-09T23:08:56.158Z,10.57
2022-11-09T23:11:25.121Z,10.52
2022-11-09T23:13:54.016Z,10.53
2022-11-09T23:16:22.444Z,10.48
2022-11-09T23:18:55.358Z,10.43
2022-11-09T23:21:28.724Z,10.48
2022-11-09T23:23:58.681Z,10.49
2022-11-09T23:26:26.538Z,10.43
2022-11-09T23:28:54.212Z,10.37
2022-11-09T23:31:24.455Z,10.30
2022-11-09T23:33:58.078Z,10.33
2022-11-09T23:36:26.519Z,10.31
2022-11-09T23:38:53.614Z,10.28
2022-11-09T23:41:21.278Z,10.38
2022-11-09T23:43:49.898Z,10.32
2022-11-09T23:46:17.564Z,10.38
2022-11-09T23:48:44.524Z,10.41
2022-11-09T23:51:11.634Z,10.30
2022-11-09T23:53:39.198Z,10.29
2022-11-09T23:56:09.730Z,10.31
2022-11-09T23:58:37.275Z,10.34
